KEUG/EUG METAR and TAF weather

Enter ICAO airport designator
Station Type Date Time Source
KEUG METAR 2024/06/14 01:54 UTC NOAA

KEUG 140154Z 23011KT 10SM FEW100 BKN200 21/07 A3005 RMK AO2 WSHFT 0105 SLP174 T02110067


Station Type Date Time Source
KEUG Decoded METAR 2024/06/14 01:54 UTC NOAA

MAHLON SWEET FIELD, OR, United States (KEUG) 44-08N 123-13W 114M
Jun 13, 2024 - 09:54 PM EDT / 2024.06.14 0154 UTC
Wind: from the SW (230 degrees) at 13 MPH (11 KT):0
Visibility: 10 mile(s):0
Sky conditions: mostly cloudy
Temperature: 70.0 F (21.1 C)
Dew Point: 44.1 F (6.7 C)
Relative Humidity: 39%
Pressure (altimeter): 30.05 in. Hg (1017 hPa)
ob: KEUG 140154Z 23011KT 10SM FEW100 BKN200 21/07 A3005 RMK AO2 WSHFT 0105 SLP174 T02110067
cycle: 2

Station Type Date Time Source
KEUG TAF 2024/06/13 21:52 UTC NOAA